Idledale, Colorado
Current Conditions -  °F | °C
As of 6:46 AM on Thursday 30 Oct 2014 (Local Time) from KBJC Reporting Station
Few Clouds Few Clouds  
Wind Chill: 42°   Ceiling: Unl
Heat Index: 45°   Visibility: 40mi
Dew Point: 23°   Wind: 5mph
Humidity: 43%   Direction: 250°WSW
Pressure: 30.36"   Gusts: NA
Location:  39.67°N, 105.25°W
Report Text: KBJC 301246Z 25004KT 40SM FEW060 FEW120 07/M05 A3036
Loading
Personal Weather Stations






























Interactive Weather Map New forecast layout! Learn more

10-Day Weather Forecast

Advertisements
Track Severe Weather on mobile